Weather observations for the past three days for
MOUNT WILSON
Imperial (Metric)
Date Time (pdt) Wind (mph) Vis. (mi.) Weather Sky Cond. Temperature (ºF) Relative Humidity Wind Chill (°F) Heat Index (°F) Pressure Precipitation (in)
Air Dwpt 6 hour altimeter (in) sea level (mb) 1 hr 3 hr 6 hr
Max. Min.
08 03:20 NW 3 0.00 NULL NULL 64.4 26.6 24% 0 0.0
08 02:20 NW 6 0.00 NULL NULL 64.4 26.6 24% 0 0.0
08 01:15 N 3 G 7 0.00 NULL NULL 64.4 26.6 24% 0 0.0
08 00:20 N 2 0.00 NULL NULL 62.6 30.2 30% 0 0.0
07 23:20 N 2 0.00 NULL NULL 60.8 33.8 36% 0 0.0
07 22:20 NE 2 0.00 NULL NULL 62.6 33.8 34% 0 0.0
07 21:20 N 3 G 8 0.00 NULL NULL 64.4 33.8 32% 0 0.0
07 20:20 NW 6 0.00 NULL NULL 64.4 37.4 37% 0 0.0
07 19:20 NW 7 G 17 0.00 NULL NULL 66.2 37.4 35% 0 0.0
07 18:20 W 5 G 12 0.00 NULL NULL 68 35.6 30% 0 0.0
07 17:20 W 12 G 17 0.00 NULL NULL 69.8 35.6 29% 0 0.0
07 16:20 SW 10 G 15 0.00 NULL NULL 69.8 41 35% 0 0.0
07 15:20 W 10 G 16 0.00 NULL NULL 71.6 39.2 31% 0 0.0
07 14:20 SW 9 G 18 0.00 NULL NULL 69.8 42.8 38% 0 0.0
07 13:20 SW 9 G 14 0.00 NULL NULL 71.6 39.2 31% 0 0.0
07 12:20 SW 6 0.00 NULL NULL 71.6 39.2 31% 0 0.0
07 11:20 SW 5 G 8 0.00 NULL NULL 69.8 37.4 31% 0 0.0
07 10:15 SW 3 G 6 0.00 NULL NULL 68 37.4 33% 0 0.0
07 09:20 W 1 0.00 NULL NULL 66.2 33.8 30% 0 0.0
07 08:20 SW 1 0.00 NULL NULL 64.4 32 30% 0 0.0
07 07:20 SW 1 0.00 NULL NULL 64.4 30.2 28% 0 0.0
07 06:20 NW 1 0.00 NULL NULL 62.6 30.2 30% 0 0.0
07 05:20 Calm 0.00 NULL NULL 60.8 30.2 31% 0 0.0
07 04:20 Calm 0.00 NULL NULL 59 32 36% 0 0.0
07 03:20 Calm 0.00 NULL NULL 59 30.2 34% 0 0.0
07 02:20 NE 1 0.00 NULL NULL 59 32 36% 0 0.0
07 01:20 NE 1 0.00 NULL NULL 57.2 33.8 41% 0 0.0
07 00:20 N 3 G 6 0.00 NULL NULL 59 35.6 42% 0 0.0
06 23:20 NW 3 G 6 0.00 NULL NULL 59 39.2 48% 0 0.0
06 22:20 N 3 0.00 NULL NULL 57.2 41 55% 0 0.0
06 21:20 NW 3 G 7 0.00 NULL NULL 59 39.2 48% 0 0.0
06 20:20 NW 7 0.00 NULL NULL 59 41 51% 0 0.0
06 19:20 NW 3 0.00 NULL NULL 60.8 44.6 55% 0 0.0
06 18:20 N 2 G 6 0.00 NULL NULL 62.6 46.4 56% 0 0.0
06 17:20 W 2 0.00 NULL NULL 66.2 50 56% 0 0.0
06 16:20 NE 2 G 6 0.00 NULL NULL 62.6 50 64% 0 0.0
06 15:20 W 3 0.00 NULL NULL 59 50 72% 0 0.0
06 14:20 W 3 G 6 0.00 NULL NULL 59 50 72% 0 0.0
06 13:20 SW 2 0.00 NULL NULL 59 50 72% 0 0.0
06 12:20 N 1 0.00 NULL NULL 60.8 48.2 63% 0 0.0
06 11:20 W 2 0.00 NULL NULL 60.8 42.8 52% 0 0.0
06 10:20 NW 2 0.00 NULL NULL 57.2 39.2 51% 0 0.0
06 09:20 NW 1 0.00 NULL NULL 55.4 35.6 47% 0 0.0
06 08:20 NE 1 0.00 NULL NULL 51.8 35.6 54% 0 0.0
06 07:20 Calm 0.00 NULL NULL 50 32 50% 0 0.0
06 06:20 N 3 0.00 NULL NULL 46.4 32 57% 0 0.0
06 05:20 N 3 0.00 NULL NULL 44.6 33.8 66% 0 0.0
06 04:20 N 3 0.00 NULL NULL 42.8 33.8 71% 0 0.0
06 03:20 N 5 G 8 0.00 NULL NULL 42.8 37.4 81% 41 0 0.0
06 02:20 W 1 0.00 NULL NULL 39.2 39.2 100% 0 0.0
06 01:20 W 2 0.00 NULL NULL 37.4 37.4 100% 0 0.0
06 00:20 N 3 0.00 NULL NULL 37.4 37.4 100% 0 0.0
05 23:20 SW 2 0.00 NULL NULL 37.4 37.4 100% 0 0.0
05 22:20 N 1 0.00 NULL NULL 37.4 37.4 100% 0 0.0
05 21:20 W 2 0.00 NULL NULL 39.2 39.2 100% 0 0.0
05 20:20 W 1 0.00 NULL NULL 39.2 39.2 100% 0 0.0
05 19:20 NW 5 G 7 0.00 NULL NULL 39.2 39.2 100% 36 0 0.0
05 18:20 W 5 G 6 0.00 NULL NULL 39.2 39.2 100% 36 0 0.0
05 17:20 W 1 0.00 NULL NULL 39.2 39.2 100% 0 0.0
05 16:20 NE 1 0.00 NULL NULL 39.2 39.2 100% 0 0.0
05 15:20 SW 6 G 7 0.00 NULL NULL 37.4 37.4 100% 33 0 0.0
05 14:20 SW 7 0.00 NULL NULL 39.2 39.2 100% 35 0 0.0
05 13:20 SW 3 0.00 NULL NULL 39.2 39.2 100% 0 0.0
05 12:20 SW 9 G 12 0.00 NULL NULL 39.2 39.2 100% 34 0 0.0
05 11:20 SW 6 G 8 0.00 NULL NULL 39.2 39.2 100% 36 0 0.0
05 10:20 SW 5 G 6 0.00 NULL NULL 39.2 39.2 100% 36 0 0.0
05 09:20 SW 1 0.00 NULL NULL 39.2 39.2 100% 0 0.0
05 08:20 W 5 G 7 0.00 NULL NULL 35.6 35.6 100% 32 0 0.0
05 07:20 SW 1 G 6 0.00 NULL NULL 33.8 33.8 100% 0 0.0
05 06:20 N 2 G 6 0.00 NULL NULL 33.8 33.8 100% 0 0.0
05 05:20 W 3 G 6 0.00 NULL NULL 35.6 35.6 100% 0 0.0
05 04:20 SW 5 G 7 0.00 NULL NULL 35.6 35.6 100% 32 0 0.0
Date Time (pdt) Wind (mph) Vis. (mi.) Weather Sky Cond. Air Dwpt Max. Min. Relative Humidity Wind Chill (°F) Heat Index (°F) altimeter (in) sea level (mb) 1 hr 3 hr 6 hr
6 hour
Temperature (ºF) Pressure Precipitation (in)